sensor_id;sensor_type;location;lat;lon;timestamp;temperature;humidity
16327;DHT22;34812;49.846;9.610;2022-07-10T00:00:16;12.80;99.90
16327;DHT22;34812;49.846;9.610;2022-07-10T00:01:21;12.80;99.90
16327;DHT22;34812;49.846;9.610;2022-07-10T00:02:22;12.80;99.90
16327;DHT22;34812;49.846;9.610;2022-07-10T00:03:23;12.80;99.90
16327;DHT22;34812;49.846;9.610;2022-07-10T00:04:24;12.70;99.90
16327;DHT22;34812;49.846;9.610;2022-07-10T00:05:26;12.70;99.90
16327;DHT22;34812;49.846;9.610;2022-07-10T00:06:27;12.70;99.90
16327;DHT22;34812;49.846;9.610;2022-07-10T00:07:28;12.70;99.90
16327;DHT22;34812;49.846;9.610;2022-07-10T00:08:29;12.80;99.90
16327;DHT22;34812;49.846;9.610;2022-07-10T00:09:31;12.70;99.90
16327;DHT22;34812;49.846;9.610;2022-07-10T00:10:31;12.70;99.90
16327;DHT22;34812;49.846;9.610;2022-07-10T00:11:34;12.70;99.90
16327;DHT22;34812;49.846;9.610;2022-07-10T00:12:34;12.70;99.90
16327;DHT22;34812;49.846;9.610;2022-07-10T00:13:38;12.60;99.90
16327;DHT22;34812;49.846;9.610;2022-07-10T00:14:39;12.60;99.90
16327;DHT22;34812;49.846;9.610;2022-07-10T00:15:41;12.60;99.90
16327;DHT22;34812;49.846;9.610;2022-07-10T00:16:42;12.50;99.90
16327;DHT22;34812;49.846;9.610;2022-07-10T00:17:44;12.50;99.90
16327;DHT22;34812;49.846;9.610;2022-07-10T00:18:45;12.50;99.90
16327;DHT22;34812;49.846;9.610;2022-07-10T00:19:46;12.50;99.90
16327;DHT22;34812;49.846;9.610;2022-07-10T00:20:48;12.50;99.90
16327;DHT22;34812;49.846;9.610;2022-07-10T00:21:49;12.50;99.90
16327;DHT22;34812;49.846;9.610;2022-07-10T00:22:50;12.50;99.90
16327;DHT22;34812;49.846;9.610;2022-07-10T00:23:51;12.50;99.90
16327;DHT22;34812;49.846;9.610;2022-07-10T00:24:53;12.50;99.90
16327;DHT22;34812;49.846;9.610;2022-07-10T00:25:53;12.40;99.90
16327;DHT22;34812;49.846;9.610;2022-07-10T00:26:55;12.40;99.90
16327;DHT22;34812;49.846;9.610;2022-07-10T00:27:56;12.40;99.90
16327;DHT22;34812;49.846;9.610;2022-07-10T00:28:59;12.40;99.90
16327;DHT22;34812;49.846;9.610;2022-07-10T00:30:00;12.40;99.90
16327;DHT22;34812;49.846;9.610;2022-07-10T00:31:02;12.40;99.90
16327;DHT22;34812;49.846;9.610;2022-07-10T00:32:04;12.40;99.90
16327;DHT22;34812;49.846;9.610;2022-07-10T00:33:05;12.40;99.90
16327;DHT22;34812;49.846;9.610;2022-07-10T00:34:06;12.40;99.90
16327;DHT22;34812;49.846;9.610;2022-07-10T00:35:08;12.30;99.90
16327;DHT22;34812;49.846;9.610;2022-07-10T00:36:09;12.30;99.90
16327;DHT22;34812;49.846;9.610;2022-07-10T00:37:11;12.30;99.90
16327;DHT22;34812;49.846;9.610;2022-07-10T00:38:11;12.20;99.90
16327;DHT22;34812;49.846;9.610;2022-07-10T00:39:13;12.20;99.90
16327;DHT22;34812;49.846;9.610;2022-07-10T00:40:14;12.20;99.90
16327;DHT22;34812;49.846;9.610;2022-07-10T00:41:15;12.20;99.90
16327;DHT22;34812;49.846;9.610;2022-07-10T00:42:16;12.20;99.90
16327;DHT22;34812;49.846;9.610;2022-07-10T00:43:18;12.20;99.90
16327;DHT22;34812;49.846;9.610;2022-07-10T00:44:20;12.10;99.90
16327;DHT22;34812;49.846;9.610;2022-07-10T00:45:22;12.10;99.90
16327;DHT22;34812;49.846;9.610;2022-07-10T00:46:23;12.10;99.90
16327;DHT22;34812;49.846;9.610;2022-07-10T00:47:25;12.00;99.90
16327;DHT22;34812;49.846;9.610;2022-07-10T00:48:26;12.00;99.90
16327;DHT22;34812;49.846;9.610;2022-07-10T00:49:27;12.00;99.90
16327;DHT22;34812;49.846;9.610;2022-07-10T00:50:28;11.90;99.90
16327;DHT22;34812;49.846;9.610;2022-07-10T00:51:31;11.90;99.90
16327;DHT22;34812;49.846;9.610;2022-07-10T00:52:35;11.90;99.90
16327;DHT22;34812;49.846;9.610;2022-07-10T00:53:39;12.00;99.90
16327;DHT22;34812;49.846;9.610;2022-07-10T00:54:42;11.90;99.90
16327;DHT22;34812;49.846;9.610;2022-07-10T00:55:44;11.90;99.90
16327;DHT22;34812;49.846;9.610;2022-07-10T00:56:45;12.00;99.90
16327;DHT22;34812;49.846;9.610;2022-07-10T00:57:47;12.00;99.90
16327;DHT22;34812;49.846;9.610;2022-07-10T00:58:50;12.00;99.90
16327;DHT22;34812;49.846;9.610;2022-07-10T00:59:53;12.00;99.90
16327;DHT22;34812;49.846;9.610;2022-07-10T01:00:54;12.10;99.90
16327;DHT22;34812;49.846;9.610;2022-07-10T01:01:56;12.10;99.90
16327;DHT22;34812;49.846;9.610;2022-07-10T01:02:57;12.10;99.90
16327;DHT22;34812;49.846;9.610;2022-07-10T01:03:58;12.20;99.90
16327;DHT22;34812;49.846;9.610;2022-07-10T01:04:59;12.20;99.90
16327;DHT22;34812;49.846;9.610;2022-07-10T01:06:01;12.20;99.90
16327;DHT22;34812;49.846;9.610;2022-07-10T01:07:03;12.20;99.90
16327;DHT22;34812;49.846;9.610;2022-07-10T01:08:05;12.20;99.90
16327;DHT22;34812;49.846;9.610;2022-07-10T01:09:06;12.20;99.90
16327;DHT22;34812;49.846;9.610;2022-07-10T01:10:08;12.10;99.90
16327;DHT22;34812;49.846;9.610;2022-07-10T01:11:10;12.10;99.90
16327;DHT22;34812;49.846;9.610;2022-07-10T01:12:12;12.10;99.90
16327;DHT22;34812;49.846;9.610;2022-07-10T01:13:13;12.00;99.90
16327;DHT22;34812;49.846;9.610;2022-07-10T01:14:15;12.00;99.90
16327;DHT22;34812;49.846;9.610;2022-07-10T01:15:17;12.00;99.90
16327;DHT22;34812;49.846;9.610;2022-07-10T01:16:19;12.00;99.90
16327;DHT22;34812;49.846;9.610;2022-07-10T01:17:20;11.90;99.90
16327;DHT22;34812;49.846;9.610;2022-07-10T01:18:21;12.00;99.90
16327;DHT22;34812;49.846;9.610;2022-07-10T01:19:23;12.00;99.90
16327;DHT22;34812;49.846;9.610;2022-07-10T01:20:29;11.90;99.90
16327;DHT22;34812;49.846;9.610;2022-07-10T01:21:32;11.80;99.90
16327;DHT22;34812;49.846;9.610;2022-07-10T01:22:35;11.90;99.90
16327;DHT22;34812;49.846;9.610;2022-07-10T01:23:36;11.90;99.90
16327;DHT22;34812;49.846;9.610;2022-07-10T01:24:38;11.90;99.90
16327;DHT22;34812;49.846;9.610;2022-07-10T01:25:39;11.90;99.90
16327;DHT22;34812;49.846;9.610;2022-07-10T01:26:41;11.80;99.90
16327;DHT22;34812;49.846;9.610;2022-07-10T01:27:43;11.80;99.90
16327;DHT22;34812;49.846;9.610;2022-07-10T01:28:45;11.80;99.90
16327;DHT22;34812;49.846;9.610;2022-07-10T01:29:47;11.80;99.90
16327;DHT22;34812;49.846;9.610;2022-07-10T01:30:49;11.80;99.90
16327;DHT22;34812;49.846;9.610;2022-07-10T01:31:49;11.80;99.90
16327;DHT22;34812;49.846;9.610;2022-07-10T01:32:51;11.80;99.90
16327;DHT22;34812;49.846;9.610;2022-07-10T01:33:52;11.80;99.90
16327;DHT22;34812;49.846;9.610;2022-07-10T01:34:54;11.90;99.90
16327;DHT22;34812;49.846;9.610;2022-07-10T01:35:55;11.90;99.90
16327;DHT22;34812;49.846;9.610;2022-07-10T01:36:58;11.90;99.90
16327;DHT22;34812;49.846;9.610;2022-07-10T01:37:59;11.90;99.90
16327;DHT22;34812;49.846;9.610;2022-07-10T01:39:00;12.00;99.90
16327;DHT22;34812;49.846;9.610;2022-07-10T01:40:02;12.00;99.90
16327;DHT22;34812;49.846;9.610;2022-07-10T01:41:04;12.00;99.90
16327;DHT22;34812;49.846;9.610;2022-07-10T01:42:05;12.00;99.90
16327;DHT22;34812;49.846;9.610;2022-07-10T01:43:07;11.90;99.90
16327;DHT22;34812;49.846;9.610;2022-07-10T01:44:07;11.90;99.90
16327;DHT22;34812;49.846;9.610;2022-07-10T01:45:10;11.80;99.90
16327;DHT22;34812;49.846;9.610;2022-07-10T01:46:11;11.80;99.90
16327;DHT22;34812;49.846;9.610;2022-07-10T01:47:13;11.70;99.90
16327;DHT22;34812;49.846;9.610;2022-07-10T01:48:14;11.70;99.90
16327;DHT22;34812;49.846;9.610;2022-07-10T01:49:15;11.60;99.90
16327;DHT22;34812;49.846;9.610;2022-07-10T01:50:16;11.60;99.90
16327;DHT22;34812;49.846;9.610;2022-07-10T01:51:18;11.50;99.90
16327;DHT22;34812;49.846;9.610;2022-07-10T01:52:20;11.50;99.90
16327;DHT22;34812;49.846;9.610;2022-07-10T01:53:22;11.50;99.90
16327;DHT22;34812;49.846;9.610;2022-07-10T01:54:23;11.50;99.90
16327;DHT22;34812;49.846;9.610;2022-07-10T01:55:25;11.50;99.90
16327;DHT22;34812;49.846;9.610;2022-07-10T01:56:25;11.50;99.90
16327;DHT22;34812;49.846;9.610;2022-07-10T01:57:27;11.60;99.90
16327;DHT22;34812;49.846;9.610;2022-07-10T01:58:28;11.60;99.90
16327;DHT22;34812;49.846;9.610;2022-07-10T01:59:30;11.50;99.90
16327;DHT22;34812;49.846;9.610;2022-07-10T02:00:31;11.50;99.90
16327;DHT22;34812;49.846;9.610;2022-07-10T02:01:32;11.50;99.90
16327;DHT22;34812;49.846;9.610;2022-07-10T02:02:33;11.50;99.90
16327;DHT22;34812;49.846;9.610;2022-07-10T02:03:35;11.60;99.90
16327;DHT22;34812;49.846;9.610;2022-07-10T02:04:54;11.60;99.90
16327;DHT22;34812;49.846;9.610;2022-07-10T02:05:55;11.60;99.90
16327;DHT22;34812;49.846;9.610;2022-07-10T02:06:56;11.60;99.90
16327;DHT22;34812;49.846;9.610;2022-07-10T02:07:59;11.60;99.90
16327;DHT22;34812;49.846;9.610;2022-07-10T02:09:00;11.60;99.90
16327;DHT22;34812;49.846;9.610;2022-07-10T02:10:01;11.60;99.90
16327;DHT22;34812;49.846;9.610;2022-07-10T02:11:02;11.60;99.90
16327;DHT22;34812;49.846;9.610;2022-07-10T02:12:05;11.60;99.90
16327;DHT22;34812;49.846;9.610;2022-07-10T02:13:06;11.60;99.90
16327;DHT22;34812;49.846;9.610;2022-07-10T02:14:08;11.60;99.90
16327;DHT22;34812;49.846;9.610;2022-07-10T02:15:09;11.60;99.90
16327;DHT22;34812;49.846;9.610;2022-07-10T02:16:10;11.60;99.90
16327;DHT22;34812;49.846;9.610;2022-07-10T02:17:11;11.50;99.90
16327;DHT22;34812;49.846;9.610;2022-07-10T02:18:13;11.50;99.90
16327;DHT22;34812;49.846;9.610;2022-07-10T02:19:14;11.50;99.90
16327;DHT22;34812;49.846;9.610;2022-07-10T02:20:16;11.60;99.90
16327;DHT22;34812;49.846;9.610;2022-07-10T02:21:16;11.60;99.90
16327;DHT22;34812;49.846;9.610;2022-07-10T02:22:18;11.50;99.90
16327;DHT22;34812;49.846;9.610;2022-07-10T02:23:20;11.50;99.90
16327;DHT22;34812;49.846;9.610;2022-07-10T02:24:22;11.50;99.90
16327;DHT22;34812;49.846;9.610;2022-07-10T02:25:23;11.50;99.90
16327;DHT22;34812;49.846;9.610;2022-07-10T02:26:24;11.40;99.90
16327;DHT22;34812;49.846;9.610;2022-07-10T02:27:25;11.40;99.90
16327;DHT22;34812;49.846;9.610;2022-07-10T02:28:27;11.40;99.90
16327;DHT22;34812;49.846;9.610;2022-07-10T02:29:28;11.40;99.90
16327;DHT22;34812;49.846;9.610;2022-07-10T02:30:29;11.40;99.90
16327;DHT22;34812;49.846;9.610;2022-07-10T02:31:30;11.40;99.90
16327;DHT22;34812;49.846;9.610;2022-07-10T02:32:34;11.40;99.90
16327;DHT22;34812;49.846;9.610;2022-07-10T02:33:35;11.40;99.90
16327;DHT22;34812;49.846;9.610;2022-07-10T02:34:37;11.40;99.90
16327;DHT22;34812;49.846;9.610;2022-07-10T02:35:38;11.40;99.90
16327;DHT22;34812;49.846;9.610;2022-07-10T02:36:40;11.40;99.90
16327;DHT22;34812;49.846;9.610;2022-07-10T02:37:41;11.40;99.90
16327;DHT22;34812;49.846;9.610;2022-07-10T02:38:44;11.30;99.90
16327;DHT22;34812;49.846;9.610;2022-07-10T02:39:44;11.30;99.90
16327;DHT22;34812;49.846;9.610;2022-07-10T02:40:46;11.30;99.90
16327;DHT22;34812;49.846;9.610;2022-07-10T02:41:47;11.20;99.90
16327;DHT22;34812;49.846;9.610;2022-07-10T02:42:49;11.20;99.90
16327;DHT22;34812;49.846;9.610;2022-07-10T02:43:49;11.20;99.90
16327;DHT22;34812;49.846;9.610;2022-07-10T02:44:51;11.10;99.90
16327;DHT22;34812;49.846;9.610;2022-07-10T02:45:52;11.10;99.90
16327;DHT22;34812;49.846;9.610;2022-07-10T02:46:53;11.00;99.90
16327;DHT22;34812;49.846;9.610;2022-07-10T02:47:54;11.00;99.90
16327;DHT22;34812;49.846;9.610;2022-07-10T02:48:56;11.00;99.90
16327;DHT22;34812;49.846;9.610;2022-07-10T02:49:57;11.00;99.90
16327;DHT22;34812;49.846;9.610;2022-07-10T02:50:58;11.10;99.90
16327;DHT22;34812;49.846;9.610;2022-07-10T02:51:59;11.20;99.90
16327;DHT22;34812;49.846;9.610;2022-07-10T02:53:01;11.20;99.90
16327;DHT22;34812;49.846;9.610;2022-07-10T02:54:04;11.30;99.90
16327;DHT22;34812;49.846;9.610;2022-07-10T02:55:08;11.30;99.90
16327;DHT22;34812;49.846;9.610;2022-07-10T02:56:09;11.20;99.90
16327;DHT22;34812;49.846;9.610;2022-07-10T02:57:11;11.20;99.90
16327;DHT22;34812;49.846;9.610;2022-07-10T02:58:11;11.20;99.90
16327;DHT22;34812;49.846;9.610;2022-07-10T02:59:15;11.20;99.90
16327;DHT22;34812;49.846;9.610;2022-07-10T03:00:18;11.20;99.90
16327;DHT22;34812;49.846;9.610;2022-07-10T03:01:19;11.20;99.90
16327;DHT22;34812;49.846;9.610;2022-07-10T03:02:21;11.20;99.90
16327;DHT22;34812;49.846;9.610;2022-07-10T03:03:22;11.20;99.90
16327;DHT22;34812;49.846;9.610;2022-07-10T03:04:23;11.10;99.90
16327;DHT22;34812;49.846;9.610;2022-07-10T03:05:24;11.10;99.90
16327;DHT22;34812;49.846;9.610;2022-07-10T03:06:26;11.10;99.90
16327;DHT22;34812;49.846;9.610;2022-07-10T03:07:27;11.00;99.90
16327;DHT22;34812;49.846;9.610;2022-07-10T03:08:29;10.90;99.90
16327;DHT22;34812;49.846;9.610;2022-07-10T03:09:32;10.90;99.90
16327;DHT22;34812;49.846;9.610;2022-07-10T03:10:33;10.80;99.90
16327;DHT22;34812;49.846;9.610;2022-07-10T03:11:35;10.80;99.90
16327;DHT22;34812;49.846;9.610;2022-07-10T03:12:36;10.80;99.90
16327;DHT22;34812;49.846;9.610;2022-07-10T03:13:38;10.80;99.90
16327;DHT22;34812;49.846;9.610;2022-07-10T03:14:39;10.80;99.90
16327;DHT22;34812;49.846;9.610;2022-07-10T03:15:40;10.80;99.90
16327;DHT22;34812;49.846;9.610;2022-07-10T03:16:42;10.80;99.90
16327;DHT22;34812;49.846;9.610;2022-07-10T03:17:43;10.70;99.90
16327;DHT22;34812;49.846;9.610;2022-07-10T03:18:44;10.70;99.90
16327;DHT22;34812;49.846;9.610;2022-07-10T03:19:45;10.60;99.90
16327;DHT22;34812;49.846;9.610;2022-07-10T03:20:47;10.60;99.90
16327;DHT22;34812;49.846;9.610;2022-07-10T03:21:48;10.60;99.90
16327;DHT22;34812;49.846;9.610;2022-07-10T03:22:49;10.60;99.90
16327;DHT22;34812;49.846;9.610;2022-07-10T03:23:50;10.60;99.90
16327;DHT22;34812;49.846;9.610;2022-07-10T03:24:53;10.50;99.90
16327;DHT22;34812;49.846;9.610;2022-07-10T03:25:54;10.50;99.90
16327;DHT22;34812;49.846;9.610;2022-07-10T03:26:56;10.40;99.90
16327;DHT22;34812;49.846;9.610;2022-07-10T03:27:57;10.40;99.90
16327;DHT22;34812;49.846;9.610;2022-07-10T03:28:58;10.40;99.90
16327;DHT22;34812;49.846;9.610;2022-07-10T03:29:59;10.40;99.90
16327;DHT22;34812;49.846;9.610;2022-07-10T03:31:01;10.40;99.90
16327;DHT22;34812;49.846;9.610;2022-07-10T03:32:03;10.40;99.90
16327;DHT22;34812;49.846;9.610;2022-07-10T03:33:04;10.40;99.90
16327;DHT22;34812;49.846;9.610;2022-07-10T03:34:05;10.40;99.90
16327;DHT22;34812;49.846;9.610;2022-07-10T03:35:07;10.40;99.90
16327;DHT22;34812;49.846;9.610;2022-07-10T03:36:08;10.40;99.90
16327;DHT22;34812;49.846;9.610;2022-07-10T03:37:10;10.40;99.90
16327;DHT22;34812;49.846;9.610;2022-07-10T03:38:10;10.40;99.90
16327;DHT22;34812;49.846;9.610;2022-07-10T03:39:12;10.40;99.90
16327;DHT22;34812;49.846;9.610;2022-07-10T03:40:14;10.40;99.90
16327;DHT22;34812;49.846;9.610;2022-07-10T03:41:16;10.40;99.90
16327;DHT22;34812;49.846;9.610;2022-07-10T03:42:17;10.50;99.90
16327;DHT22;34812;49.846;9.610;2022-07-10T03:43:19;10.50;99.90
16327;DHT22;34812;49.846;9.610;2022-07-10T03:44:20;10.50;99.90
16327;DHT22;34812;49.846;9.610;2022-07-10T03:45:21;10.50;99.90
16327;DHT22;34812;49.846;9.610;2022-07-10T03:46:22;10.60;99.90
16327;DHT22;34812;49.846;9.610;2022-07-10T03:47:24;10.60;99.90
16327;DHT22;34812;49.846;9.610;2022-07-10T03:48:25;10.60;99.90
16327;DHT22;34812;49.846;9.610;2022-07-10T03:49:26;10.60;99.90
16327;DHT22;34812;49.846;9.610;2022-07-10T03:50:27;10.60;99.90
16327;DHT22;34812;49.846;9.610;2022-07-10T03:51:29;10.60;99.90
16327;DHT22;34812;49.846;9.610;2022-07-10T03:52:30;10.60;99.90
16327;DHT22;34812;49.846;9.610;2022-07-10T03:53:31;10.60;99.90
16327;DHT22;34812;49.846;9.610;2022-07-10T03:54:32;10.70;99.90
16327;DHT22;34812;49.846;9.610;2022-07-10T03:55:35;10.70;99.90
16327;DHT22;34812;49.846;9.610;2022-07-10T03:56:36;10.70;99.90
16327;DHT22;34812;49.846;9.610;2022-07-10T03:57:55;10.80;99.90
16327;DHT22;34812;49.846;9.610;2022-07-10T03:58:57;10.80;99.90
16327;DHT22;34812;49.846;9.610;2022-07-10T03:59:58;10.90;99.90
16327;DHT22;34812;49.846;9.610;2022-07-10T04:00:59;10.90;99.90
16327;DHT22;34812;49.846;9.610;2022-07-10T04:02:00;10.90;99.90
16327;DHT22;34812;49.846;9.610;2022-07-10T04:03:03;10.90;99.90
16327;DHT22;34812;49.846;9.610;2022-07-10T04:04:05;11.00;99.90
16327;DHT22;34812;49.846;9.610;2022-07-10T04:05:06;10.90;99.90
16327;DHT22;34812;49.846;9.610;2022-07-10T04:06:08;11.00;99.90
16327;DHT22;34812;49.846;9.610;2022-07-10T04:07:08;11.00;99.90
16327;DHT22;34812;49.846;9.610;2022-07-10T04:08:12;11.00;99.90
16327;DHT22;34812;49.846;9.610;2022-07-10T04:09:13;11.00;99.90
16327;DHT22;34812;49.846;9.610;2022-07-10T04:10:15;11.00;99.90
16327;DHT22;34812;49.846;9.610;2022-07-10T04:11:17;11.00;99.90
16327;DHT22;34812;49.846;9.610;2022-07-10T04:12:19;11.00;99.90
16327;DHT22;34812;49.846;9.610;2022-07-10T04:13:20;11.00;99.90
16327;DHT22;34812;49.846;9.610;2022-07-10T04:14:22;11.00;99.90
16327;DHT22;34812;49.846;9.610;2022-07-10T04:15:23;11.00;99.90
16327;DHT22;34812;49.846;9.610;2022-07-10T04:16:25;11.00;99.90
16327;DHT22;34812;49.846;9.610;2022-07-10T04:17:25;11.00;99.90
16327;DHT22;34812;49.846;9.610;2022-07-10T04:18:27;11.10;99.90
16327;DHT22;34812;49.846;9.610;2022-07-10T04:19:28;11.10;99.90
16327;DHT22;34812;49.846;9.610;2022-07-10T04:20:29;11.10;99.90
16327;DHT22;34812;49.846;9.610;2022-07-10T04:21:30;11.20;99.90
16327;DHT22;34812;49.846;9.610;2022-07-10T04:22:32;11.20;99.90
16327;DHT22;34812;49.846;9.610;2022-07-10T04:23:33;11.20;99.90
16327;DHT22;34812;49.846;9.610;2022-07-10T04:24:35;11.30;99.90
16327;DHT22;34812;49.846;9.610;2022-07-10T04:25:36;11.30;99.90
16327;DHT22;34812;49.846;9.610;2022-07-10T04:26:39;11.30;99.90
16327;DHT22;34812;49.846;9.610;2022-07-10T04:27:39;11.30;99.90
16327;DHT22;34812;49.846;9.610;2022-07-10T04:28:41;11.30;99.90
16327;DHT22;34812;49.846;9.610;2022-07-10T04:29:42;11.40;99.90
16327;DHT22;34812;49.846;9.610;2022-07-10T04:30:44;11.40;99.90
16327;DHT22;34812;49.846;9.610;2022-07-10T04:31:44;11.50;99.90
16327;DHT22;34812;49.846;9.610;2022-07-10T04:32:46;11.50;99.90
16327;DHT22;34812;49.846;9.610;2022-07-10T04:33:47;11.50;99.90
16327;DHT22;34812;49.846;9.610;2022-07-10T04:34:49;11.60;99.90
16327;DHT22;34812;49.846;9.610;2022-07-10T04:35:50;11.60;99.90
16327;DHT22;34812;49.846;9.610;2022-07-10T04:36:52;11.60;99.90
16327;DHT22;34812;49.846;9.610;2022-07-10T04:37:52;11.70;99.90
16327;DHT22;34812;49.846;9.610;2022-07-10T04:38:54;11.70;99.90
16327;DHT22;34812;49.846;9.610;2022-07-10T04:39:55;11.70;99.90
16327;DHT22;34812;49.846;9.610;2022-07-10T04:40:56;11.70;99.90
16327;DHT22;34812;49.846;9.610;2022-07-10T04:41:58;11.70;99.90
16327;DHT22;34812;49.846;9.610;2022-07-10T04:43:00;11.80;99.90
16327;DHT22;34812;49.846;9.610;2022-07-10T04:44:01;11.80;99.90
16327;DHT22;34812;49.846;9.610;2022-07-10T04:45:03;11.80;99.90
16327;DHT22;34812;49.846;9.610;2022-07-10T04:46:04;11.80;99.90
16327;DHT22;34812;49.846;9.610;2022-07-10T04:47:07;11.80;99.90
16327;DHT22;34812;49.846;9.610;2022-07-10T04:48:08;11.70;99.90
16327;DHT22;34812;49.846;9.610;2022-07-10T04:49:09;11.70;99.90
16327;DHT22;34812;49.846;9.610;2022-07-10T04:50:10;11.70;99.90
16327;DHT22;34812;49.846;9.610;2022-07-10T04:51:12;11.70;99.90
16327;DHT22;34812;49.846;9.610;2022-07-10T04:52:13;11.70;99.90
16327;DHT22;34812;49.846;9.610;2022-07-10T04:53:15;11.70;99.90
16327;DHT22;34812;49.846;9.610;2022-07-10T04:54:16;11.70;99.90
16327;DHT22;34812;49.846;9.610;2022-07-10T04:55:18;11.70;99.90
16327;DHT22;34812;49.846;9.610;2022-07-10T04:56:19;11.70;99.90
16327;DHT22;34812;49.846;9.610;2022-07-10T04:57:22;11.70;99.90
16327;DHT22;34812;49.846;9.610;2022-07-10T04:58:23;11.70;99.90
16327;DHT22;34812;49.846;9.610;2022-07-10T04:59:24;11.70;99.90
16327;DHT22;34812;49.846;9.610;2022-07-10T05:00:25;11.70;99.90
16327;DHT22;34812;49.846;9.610;2022-07-10T05:01:27;11.70;99.90
16327;DHT22;34812;49.846;9.610;2022-07-10T05:02:28;11.70;99.90
16327;DHT22;34812;49.846;9.610;2022-07-10T05:03:30;11.70;99.90
16327;DHT22;34812;49.846;9.610;2022-07-10T05:04:30;11.70;99.90
16327;DHT22;34812;49.846;9.610;2022-07-10T05:05:32;11.80;99.90
16327;DHT22;34812;49.846;9.610;2022-07-10T05:06:33;11.70;99.90
16327;DHT22;34812;49.846;9.610;2022-07-10T05:07:34;11.80;99.90
16327;DHT22;34812;49.846;9.610;2022-07-10T05:08:35;11.80;99.90
16327;DHT22;34812;49.846;9.610;2022-07-10T05:09:37;11.80;99.90
16327;DHT22;34812;49.846;9.610;2022-07-10T05:10:37;11.80;99.90
16327;DHT22;34812;49.846;9.610;2022-07-10T05:11:40;11.80;99.90
16327;DHT22;34812;49.846;9.610;2022-07-10T05:12:42;11.80;99.90
16327;DHT22;34812;49.846;9.610;2022-07-10T05:13:44;11.90;99.90
16327;DHT22;34812;49.846;9.610;2022-07-10T05:14:46;11.90;99.90
16327;DHT22;34812;49.846;9.610;2022-07-10T05:15:48;11.90;99.90
16327;DHT22;34812;49.846;9.610;2022-07-10T05:16:50;11.90;99.90
16327;DHT22;34812;49.846;9.610;2022-07-10T05:17:51;11.90;99.90
16327;DHT22;34812;49.846;9.610;2022-07-10T05:18:52;12.00;99.90
16327;DHT22;34812;49.846;9.610;2022-07-10T05:19:54;12.00;99.90
16327;DHT22;34812;49.846;9.610;2022-07-10T05:20:56;12.00;99.90
16327;DHT22;34812;49.846;9.610;2022-07-10T05:21:58;12.00;99.90
16327;DHT22;34812;49.846;9.610;2022-07-10T05:22:58;12.00;99.90
16327;DHT22;34812;49.846;9.610;2022-07-10T05:24:00;12.00;99.90
16327;DHT22;34812;49.846;9.610;2022-07-10T05:25:01;12.00;99.90
16327;DHT22;34812;49.846;9.610;2022-07-10T05:26:03;12.10;99.90
16327;DHT22;34812;49.846;9.610;2022-07-10T05:27:05;12.10;99.90
16327;DHT22;34812;49.846;9.610;2022-07-10T05:28:08;12.10;99.90
16327;DHT22;34812;49.846;9.610;2022-07-10T05:29:10;12.20;99.90
16327;DHT22;34812;49.846;9.610;2022-07-10T05:30:11;12.20;99.90
16327;DHT22;34812;49.846;9.610;2022-07-10T05:31:12;12.20;99.90
16327;DHT22;34812;49.846;9.610;2022-07-10T05:32:13;12.30;99.90
16327;DHT22;34812;49.846;9.610;2022-07-10T05:33:15;12.40;99.90
16327;DHT22;34812;49.846;9.610;2022-07-10T05:34:16;12.50;99.90
16327;DHT22;34812;49.846;9.610;2022-07-10T05:35:17;12.60;99.90
16327;DHT22;34812;49.846;9.610;2022-07-10T05:36:18;12.60;99.90
16327;DHT22;34812;49.846;9.610;2022-07-10T05:37:20;12.70;99.90
16327;DHT22;34812;49.846;9.610;2022-07-10T05:38:21;12.70;99.90
16327;DHT22;34812;49.846;9.610;2022-07-10T05:39:22;12.80;99.90
16327;DHT22;34812;49.846;9.610;2022-07-10T05:40:26;12.80;99.90
16327;DHT22;34812;49.846;9.610;2022-07-10T05:41:28;12.80;99.90
16327;DHT22;34812;49.846;9.610;2022-07-10T05:42:29;12.80;99.90
16327;DHT22;34812;49.846;9.610;2022-07-10T05:43:32;12.90;99.90
16327;DHT22;34812;49.846;9.610;2022-07-10T05:44:33;12.90;99.90
16327;DHT22;34812;49.846;9.610;2022-07-10T05:45:35;12.90;99.90
16327;DHT22;34812;49.846;9.610;2022-07-10T05:46:35;12.90;99.90
16327;DHT22;34812;49.846;9.610;2022-07-10T05:47:37;12.90;99.90
16327;DHT22;34812;49.846;9.610;2022-07-10T05:48:38;12.90;99.90
16327;DHT22;34812;49.846;9.610;2022-07-10T05:49:39;13.00;99.90
16327;DHT22;34812;49.846;9.610;2022-07-10T05:50:40;13.10;99.90
16327;DHT22;34812;49.846;9.610;2022-07-10T05:51:42;13.10;99.90
16327;DHT22;34812;49.846;9.610;2022-07-10T05:52:43;13.20;99.90
16327;DHT22;34812;49.846;9.610;2022-07-10T05:53:45;13.20;99.90
16327;DHT22;34812;49.846;9.610;2022-07-10T05:54:46;13.20;99.90
16327;DHT22;34812;49.846;9.610;2022-07-10T05:55:47;13.30;99.90
16327;DHT22;34812;49.846;9.610;2022-07-10T05:56:48;13.30;99.90
16327;DHT22;34812;49.846;9.610;2022-07-10T05:57:51;13.30;99.90
16327;DHT22;34812;49.846;9.610;2022-07-10T05:58:56;13.30;99.90
16327;DHT22;34812;49.846;9.610;2022-07-10T05:59:57;13.40;99.90
16327;DHT22;34812;49.846;9.610;2022-07-10T06:00:59;13.40;99.90
16327;DHT22;34812;49.846;9.610;2022-07-10T06:01:59;13.50;99.90
16327;DHT22;34812;49.846;9.610;2022-07-10T06:03:01;13.50;99.90
16327;DHT22;34812;49.846;9.610;2022-07-10T06:04:02;13.50;99.90
16327;DHT22;34812;49.846;9.610;2022-07-10T06:05:04;13.60;99.90
16327;DHT22;34812;49.846;9.610;2022-07-10T06:06:05;13.60;99.90
16327;DHT22;34812;49.846;9.610;2022-07-10T06:07:07;13.70;99.90
16327;DHT22;34812;49.846;9.610;2022-07-10T06:08:10;13.80;99.90
16327;DHT22;34812;49.846;9.610;2022-07-10T06:09:12;14.00;99.90
16327;DHT22;34812;49.846;9.610;2022-07-10T06:10:13;14.10;99.90
16327;DHT22;34812;49.846;9.610;2022-07-10T06:11:14;14.20;99.90
16327;DHT22;34812;49.846;9.610;2022-07-10T06:12:16;14.30;99.90
16327;DHT22;34812;49.846;9.610;2022-07-10T06:13:18;14.40;99.90
16327;DHT22;34812;49.846;9.610;2022-07-10T06:14:20;14.40;99.90
16327;DHT22;34812;49.846;9.610;2022-07-10T06:15:22;14.40;99.90
16327;DHT22;34812;49.846;9.610;2022-07-10T06:16:23;14.40;99.90
16327;DHT22;34812;49.846;9.610;2022-07-10T06:17:24;14.40;99.90
16327;DHT22;34812;49.846;9.610;2022-07-10T06:18:25;14.30;99.90
16327;DHT22;34812;49.846;9.610;2022-07-10T06:19:27;14.30;99.90
16327;DHT22;34812;49.846;9.610;2022-07-10T06:20:28;14.30;99.90
16327;DHT22;34812;49.846;9.610;2022-07-10T06:21:30;14.30;99.90
16327;DHT22;34812;49.846;9.610;2022-07-10T06:22:31;14.30;99.90
16327;DHT22;34812;49.846;9.610;2022-07-10T06:23:33;14.40;99.90
16327;DHT22;34812;49.846;9.610;2022-07-10T06:24:34;14.40;99.90
16327;DHT22;34812;49.846;9.610;2022-07-10T06:25:35;14.40;99.90
16327;DHT22;34812;49.846;9.610;2022-07-10T06:26:36;14.50;99.90
16327;DHT22;34812;49.846;9.610;2022-07-10T06:27:38;14.50;99.90
16327;DHT22;34812;49.846;9.610;2022-07-10T06:28:38;14.50;99.90